createdAt,value
2022-08-27T02:30:34.319Z,0
2022-08-27T02:31:34.383Z,0
2022-08-27T02:32:34.291Z,0
2022-08-27T02:33:34.309Z,0
2022-08-27T02:34:34.291Z,0
2022-08-27T02:35:34.282Z,0
2022-08-27T02:36:34.284Z,0
2022-08-27T02:37:34.289Z,0
2022-08-27T02:38:34.286Z,0
2022-08-27T02:39:34.299Z,0
2022-08-27T02:40:34.369Z,0
2022-08-27T02:41:34.290Z,0
2022-08-27T02:42:34.303Z,0
2022-08-27T02:43:34.302Z,0
2022-08-27T02:44:34.285Z,0
2022-08-27T02:45:35.515Z,0
2022-08-27T02:46:34.361Z,0
2022-08-27T02:47:34.294Z,0
2022-08-27T02:48:34.288Z,0
2022-08-27T02:49:34.305Z,0
2022-08-27T02:50:34.286Z,0
2022-08-27T02:51:34.293Z,0
2022-08-27T02:52:34.285Z,0
2022-08-27T02:53:34.292Z,0
2022-08-27T02:54:34.297Z,0
2022-08-27T02:55:34.283Z,0
2022-08-27T02:56:34.277Z,0
2022-08-27T02:57:36.546Z,0
2022-08-27T02:58:34.295Z,0
2022-08-27T02:59:34.282Z,0
2022-08-27T03:00:34.285Z,0
2022-08-27T03:01:34.333Z,0
2022-08-27T03:02:34.411Z,0
2022-08-27T03:03:34.294Z,0
2022-08-27T03:04:34.280Z,0
2022-08-27T03:05:34.284Z,0
2022-08-27T03:06:34.277Z,0
2022-08-27T03:07:34.276Z,0
2022-08-27T03:08:52.022Z,0
2022-08-27T03:09:34.312Z,0
2022-08-27T03:10:34.279Z,0
2022-08-27T03:11:34.286Z,0
2022-08-27T03:12:34.272Z,0
2022-08-27T03:13:34.296Z,0
2022-08-27T03:14:34.286Z,0
2022-08-27T03:15:34.280Z,0
2022-08-27T03:16:34.280Z,0
2022-08-27T03:17:34.275Z,0
2022-08-27T03:18:34.293Z,0
2022-08-27T03:19:34.287Z,0
2022-08-27T03:20:34.280Z,0
2022-08-27T03:21:34.280Z,0
2022-08-27T03:22:34.286Z,0
2022-08-27T03:23:34.295Z,0
2022-08-27T03:24:34.308Z,0
2022-08-27T03:25:34.285Z,0
2022-08-27T03:26:34.293Z,0
2022-08-27T03:27:34.289Z,0
2022-08-27T03:28:34.291Z,0
2022-08-27T03:29:34.285Z,0
2022-08-27T03:30:34.286Z,0
2022-08-27T03:31:34.326Z,0
2022-08-27T03:32:34.285Z,0
2022-08-27T03:33:34.301Z,0
2022-08-27T03:34:34.284Z,0
2022-08-27T03:35:34.283Z,0
2022-08-27T03:36:34.285Z,0
2022-08-27T03:37:34.293Z,0
2022-08-27T03:38:34.312Z,0
2022-08-27T03:39:34.305Z,0
2022-08-27T03:40:34.325Z,0
2022-08-27T03:41:54.009Z,0
2022-08-27T03:42:34.293Z,0
2022-08-27T03:43:34.307Z,0
2022-08-27T03:44:34.290Z,0
2022-08-27T03:45:56.657Z,0
2022-08-27T03:46:34.315Z,0
2022-08-27T03:47:34.289Z,0
2022-08-27T03:48:34.311Z,0
2022-08-27T03:49:34.291Z,0
2022-08-27T03:50:34.297Z,0
2022-08-27T03:51:34.293Z,0
2022-08-27T03:52:34.302Z,0
2022-08-27T03:53:34.313Z,0
2022-08-27T03:54:34.318Z,0
2022-08-27T03:55:34.288Z,0
2022-08-27T03:56:34.299Z,0
2022-08-27T03:57:34.299Z,0
2022-08-27T03:58:34.307Z,0
2022-08-27T03:59:34.303Z,0
2022-08-27T04:00:34.300Z,0
2022-08-27T04:01:34.371Z,0.01
2022-08-27T04:02:34.375Z,0.01
2022-08-27T04:03:34.307Z,0.01
2022-08-27T04:04:34.298Z,0.01
2022-08-27T04:05:34.300Z,0.01
2022-08-27T04:06:34.305Z,0.01
2022-08-27T04:07:34.301Z,0.01
2022-08-27T04:08:34.306Z,0.01
2022-08-27T04:09:34.318Z,0.01
2022-08-27T04:10:34.854Z,0.01
2022-08-27T04:11:34.302Z,0.01
2022-08-27T04:12:34.302Z,0.02
2022-08-27T04:13:34.304Z,0.02
2022-08-27T04:14:34.304Z,0.02
2022-08-27T04:15:34.296Z,0.02
2022-08-27T04:16:34.407Z,0.02
2022-08-27T04:17:34.300Z,0.03
2022-08-27T04:18:34.308Z,0.03
2022-08-27T04:19:34.295Z,0.03
2022-08-27T04:20:35.471Z,0.03
2022-08-27T04:21:34.296Z,0.03
2022-08-27T04:22:34.321Z,0.03
2022-08-27T04:23:34.319Z,0.03
2022-08-27T04:24:34.319Z,0.03
2022-08-27T04:25:34.292Z,0.04
2022-08-27T04:26:34.287Z,0.04
2022-08-27T04:27:34.290Z,0.04
2022-08-27T04:28:38.267Z,0.04
2022-08-27T04:29:34.298Z,0.05
2022-08-27T04:30:34.297Z,0.05
2022-08-27T04:31:34.320Z,0.06
2022-08-27T04:32:34.398Z,0.06
2022-08-27T04:33:34.309Z,0.07
2022-08-27T04:34:34.288Z,0.07
2022-08-27T04:35:34.286Z,0.07
2022-08-27T04:36:34.299Z,0.08
2022-08-27T04:37:34.288Z,0.08
2022-08-27T04:38:34.308Z,0.09
2022-08-27T04:39:34.311Z,0.09
2022-08-27T04:40:34.320Z,0.09
2022-08-27T04:41:34.304Z,0.1
2022-08-27T04:42:34.296Z,0.1
2022-08-27T04:43:34.309Z,0.11
2022-08-27T04:44:34.305Z,0.11
2022-08-27T04:45:34.301Z,0.12
2022-08-27T04:46:34.436Z,0.12
2022-08-27T04:47:34.291Z,0.12
2022-08-27T04:48:34.304Z,0.13
2022-08-27T04:49:34.298Z,0.13
2022-08-27T04:50:34.287Z,0.13
2022-08-27T04:51:34.303Z,0.14
2022-08-27T04:52:34.295Z,0.15
2022-08-27T04:53:34.304Z,0.15
2022-08-27T04:54:34.310Z,0.16
2022-08-27T04:55:34.318Z,0.16
2022-08-27T04:56:34.309Z,0.17
2022-08-27T04:57:34.292Z,0.18
2022-08-27T04:58:34.313Z,0.19
2022-08-27T04:59:34.293Z,0.2
2022-08-27T05:00:34.289Z,0.2
2022-08-27T05:01:34.364Z,0.22
2022-08-27T05:02:34.296Z,0.23
2022-08-27T05:03:34.307Z,0.24
2022-08-27T05:04:34.300Z,0.25
2022-08-27T05:05:34.386Z,0.27
2022-08-27T05:06:34.286Z,0.28
2022-08-27T05:07:34.302Z,0.28
2022-08-27T05:08:34.320Z,0.3
2022-08-27T05:09:34.316Z,0.31
2022-08-27T05:10:34.319Z,0.31
2022-08-27T05:11:34.292Z,0.32
2022-08-27T05:12:34.294Z,0.33
2022-08-27T05:13:34.298Z,0.34
2022-08-27T05:14:34.297Z,0.36
2022-08-27T05:15:34.339Z,0.38
2022-08-27T05:16:34.292Z,0.39
2022-08-27T05:17:34.294Z,0.41
2022-08-27T05:18:41.693Z,0.39
2022-08-27T05:19:34.295Z,0.41
2022-08-27T05:20:34.294Z,0.41
2022-08-27T05:21:34.302Z,0.45
2022-08-27T05:22:34.297Z,0.47
2022-08-27T05:23:34.306Z,0.47
2022-08-27T05:24:34.314Z,0.48
2022-08-27T05:25:34.312Z,0.48
2022-08-27T05:26:34.293Z,0.5
2022-08-27T05:27:34.291Z,0.51
2022-08-27T05:28:34.307Z,0.55
2022-08-27T05:29:34.297Z,0.54
2022-08-27T05:30:34.298Z,0.55
2022-08-27T05:31:34.359Z,0.59
2022-08-27T05:32:34.298Z,0.63
2022-08-27T05:33:34.312Z,0.62
2022-08-27T05:34:34.293Z,0.59
2022-08-27T05:35:34.295Z,0.59
2022-08-27T05:36:34.291Z,0.59
2022-08-27T05:37:34.292Z,0.67
2022-08-27T05:38:34.303Z,0.71
2022-08-27T05:39:34.309Z,0.71
2022-08-27T05:40:34.416Z,0.75
2022-08-27T05:41:34.535Z,0.74
2022-08-27T05:42:34.298Z,0.73
2022-08-27T05:43:34.306Z,0.72
2022-08-27T05:44:40.968Z,0.63
2022-08-27T05:45:34.284Z,0.61
2022-08-27T05:46:34.357Z,0.55
2022-08-27T05:47:37.543Z,0.51
2022-08-27T05:48:34.294Z,0.53
2022-08-27T05:49:34.297Z,0.63
2022-08-27T05:50:34.290Z,0.63
2022-08-27T05:51:34.314Z,0.6
2022-08-27T05:52:34.295Z,0.6
2022-08-27T05:53:34.314Z,0.59
2022-08-27T05:54:34.311Z,0.59
2022-08-27T05:55:34.291Z,0.66
2022-08-27T05:56:34.291Z,0.72
2022-08-27T05:57:34.297Z,0.7
2022-08-27T05:58:34.301Z,0.86
2022-08-27T05:59:34.696Z,1.97
2022-08-27T06:00:34.294Z,1.36
2022-08-27T06:01:34.294Z,1.99
2022-08-27T06:02:34.382Z,2.05
2022-08-27T06:03:34.297Z,2.02
2022-08-27T06:04:34.291Z,2
2022-08-27T06:05:34.344Z,2.1
2022-08-27T06:06:34.293Z,1.99
2022-08-27T06:07:34.294Z,1.99
2022-08-27T06:08:34.312Z,2.41
2022-08-27T06:09:34.308Z,2.46
2022-08-27T06:10:34.289Z,2.46
2022-08-27T06:11:34.298Z,2.67
2022-08-27T06:12:34.300Z,2.72
2022-08-27T06:13:34.302Z,2.7
2022-08-27T06:14:34.293Z,2.75
2022-08-27T06:15:34.331Z,2.78
2022-08-27T06:16:34.289Z,2.81
2022-08-27T06:17:34.296Z,2.79
2022-08-27T06:18:34.309Z,2.77
2022-08-27T06:19:34.299Z,2.86
2022-08-27T06:20:34.289Z,2.86
2022-08-27T06:21:34.292Z,3.03
2022-08-27T06:22:34.297Z,2.93
2022-08-27T06:23:34.304Z,2.85
2022-08-27T06:24:34.305Z,2.9
2022-08-27T06:25:34.314Z,2.9
2022-08-27T06:26:34.291Z,3.03
2022-08-27T06:27:34.300Z,3.17
2022-08-27T06:28:34.309Z,3.25
2022-08-27T06:29:34.293Z,3.27
2022-08-27T06:30:34.300Z,3.23
2022-08-27T06:31:34.367Z,3.31
2022-08-27T06:32:34.291Z,3.29
2022-08-27T06:33:34.309Z,2.84
2022-08-27T06:34:34.295Z,2.23
2022-08-27T06:35:34.294Z,2.07
2022-08-27T06:36:34.288Z,2.13
2022-08-27T06:37:34.295Z,2.07
2022-08-27T06:38:34.368Z,2.18
2022-08-27T06:39:34.313Z,2.22
2022-08-27T06:40:34.349Z,2.55
2022-08-27T06:41:34.299Z,3.34
2022-08-27T06:42:34.786Z,3.7
2022-08-27T06:43:34.306Z,3.8
2022-08-27T06:44:34.297Z,3.75
2022-08-27T06:45:34.288Z,3.75
2022-08-27T06:46:34.362Z,3.36
2022-08-27T06:47:34.296Z,3.38
2022-08-27T06:48:34.301Z,3.33
2022-08-27T06:49:34.302Z,3.92
2022-08-27T06:50:34.286Z,3.92
2022-08-27T06:51:34.298Z,4.17
2022-08-27T06:52:34.287Z,4.24
2022-08-27T06:53:34.305Z,4.35
2022-08-27T06:54:34.308Z,4.44
2022-08-27T06:55:37.205Z,4.44
2022-08-27T06:56:34.299Z,4.35
2022-08-27T06:57:34.305Z,4.5
2022-08-27T06:58:34.306Z,4.5
2022-08-27T06:59:34.293Z,3.67
2022-08-27T07:00:34.290Z,3.07
2022-08-27T07:01:34.362Z,1.92
2022-08-27T07:02:34.339Z,3.44
2022-08-27T07:03:34.301Z,3.29
2022-08-27T07:04:34.288Z,2.73
2022-08-27T07:05:34.290Z,2.35
2022-08-27T07:06:34.288Z,1.91
2022-08-27T07:07:36.508Z,1.91
2022-08-27T07:08:34.295Z,1.32
2022-08-27T07:09:34.326Z,1.02
2022-08-27T07:10:34.295Z,1.02
2022-08-27T07:11:34.298Z,1.3
2022-08-27T07:12:34.289Z,1.19
2022-08-27T07:13:34.342Z,1.04
2022-08-27T07:14:37.727Z,1.05
2022-08-27T07:15:34.407Z,1.1
2022-08-27T07:16:34.293Z,1.19
2022-08-27T07:17:34.302Z,1.31
2022-08-27T07:18:34.310Z,1.44
2022-08-27T07:19:34.294Z,1.67
2022-08-27T07:20:34.302Z,1.78
2022-08-27T07:21:34.299Z,1.92
2022-08-27T07:22:34.313Z,1.89
2022-08-27T07:23:34.304Z,2.46
2022-08-27T07:24:34.313Z,3.37
2022-08-27T07:25:34.292Z,2.61
2022-08-27T07:26:34.294Z,3.8
2022-08-27T07:27:34.290Z,4.94
2022-08-27T07:28:34.302Z,3.53
2022-08-27T07:29:34.291Z,2.49
2022-08-27T07:30:34.379Z,2.49
2022-08-27T07:31:34.298Z,2.24
2022-08-27T07:32:34.296Z,2.28
2022-08-27T07:33:34.306Z,4.13
2022-08-27T07:34:34.339Z,4.91
2022-08-27T07:35:34.303Z,5.04
2022-08-27T07:36:34.296Z,4.27
2022-08-27T07:37:35.151Z,2.15
2022-08-27T07:38:34.313Z,1.94
2022-08-27T07:39:34.307Z,1.8
2022-08-27T07:40:34.459Z,1.73
2022-08-27T07:41:34.304Z,1.75
2022-08-27T07:42:34.297Z,1.96
2022-08-27T07:43:34.317Z,2.02
2022-08-27T07:44:35.275Z,1.88
2022-08-27T07:45:34.298Z,1.69
2022-08-27T07:46:37.986Z,1.58
2022-08-27T07:47:34.305Z,1.49
2022-08-27T07:48:34.304Z,1.4
2022-08-27T07:49:34.297Z,1.35
2022-08-27T07:50:34.293Z,1.31
2022-08-27T07:51:34.294Z,1.27
2022-08-27T07:52:34.297Z,1.25
2022-08-27T07:53:34.382Z,1.26
2022-08-27T07:54:34.315Z,1.26
2022-08-27T07:55:34.294Z,1.27
2022-08-27T07:56:34.294Z,1.26
2022-08-27T07:57:34.297Z,1.23
2022-08-27T07:58:34.304Z,1.19
2022-08-27T07:59:34.292Z,1.18
2022-08-27T08:00:34.289Z,1.18
2022-08-27T08:01:34.354Z,1.15
2022-08-27T08:02:34.340Z,1.12
2022-08-27T08:03:34.310Z,1.08
2022-08-27T08:04:34.300Z,1.07
2022-08-27T08:05:34.289Z,1.08
2022-08-27T08:06:34.296Z,1.1
2022-08-27T08:07:34.288Z,1.1
2022-08-27T08:08:34.297Z,1.18
2022-08-27T08:09:34.558Z,1.21
2022-08-27T08:10:35.566Z,1.21
2022-08-27T08:11:34.287Z,1.21
2022-08-27T08:12:34.291Z,1.25
2022-08-27T08:13:34.316Z,1.27
2022-08-27T08:14:34.291Z,1.21
2022-08-27T08:15:34.299Z,1.01
2022-08-27T08:16:34.345Z,0.92
2022-08-27T08:17:34.289Z,0.86
2022-08-27T08:18:34.320Z,0.87
2022-08-27T08:19:34.284Z,0.87
2022-08-27T08:20:56.393Z,0.87
2022-08-27T08:21:34.290Z,0.85
2022-08-27T08:22:34.289Z,0.79
2022-08-27T08:23:34.300Z,0.73
2022-08-27T08:24:34.305Z,0.7
2022-08-27T08:25:35.515Z,0.67
2022-08-27T08:26:34.288Z,0.67
2022-08-27T08:27:34.293Z,0.67
2022-08-27T08:28:34.309Z,0.68
2022-08-27T08:29:34.294Z,0.68
2022-08-27T08:30:35.362Z,0.67
2022-08-27T08:31:34.291Z,0.65
2022-08-27T08:32:34.295Z,0.66
2022-08-27T08:33:34.304Z,0.68
2022-08-27T08:34:34.319Z,0.69
2022-08-27T08:35:40.702Z,0.67
2022-08-27T08:36:34.292Z,0.65
2022-08-27T08:37:34.348Z,0.64
2022-08-27T08:38:34.308Z,0.63
2022-08-27T08:39:34.302Z,0.62
2022-08-27T08:40:34.337Z,0.63
2022-08-27T08:41:34.301Z,0.64
2022-08-27T08:42:34.303Z,0.65
2022-08-27T08:43:34.320Z,0.65
2022-08-27T08:44:34.293Z,0.64
2022-08-27T08:45:34.298Z,0.62
2022-08-27T08:46:34.349Z,0.61
2022-08-27T08:47:34.302Z,0.61
2022-08-27T08:48:34.326Z,0.61
2022-08-27T08:49:34.299Z,0.61
2022-08-27T08:50:34.298Z,0.62
2022-08-27T08:51:34.297Z,0.63
2022-08-27T08:52:34.296Z,0.64
2022-08-27T08:53:34.327Z,0.65
2022-08-27T08:54:34.306Z,0.66
2022-08-27T08:55:34.301Z,0.66
2022-08-27T08:56:34.294Z,0.65
2022-08-27T08:57:34.312Z,0.63
2022-08-27T08:58:34.311Z,0.62
2022-08-27T08:59:34.303Z,0.63
2022-08-27T09:00:34.346Z,0.63
2022-08-27T09:01:34.314Z,0.79
2022-08-27T09:02:34.295Z,0.95
2022-08-27T09:03:34.354Z,1.13
2022-08-27T09:04:34.292Z,1.33
2022-08-27T09:05:34.288Z,1.56
2022-08-27T09:06:34.298Z,1.98
2022-08-27T09:07:34.306Z,1.98
2022-08-27T09:08:37.647Z,2.88
2022-08-27T09:09:34.314Z,2.26
2022-08-27T09:10:34.290Z,2.09
2022-08-27T09:11:34.290Z,2.07
2022-08-27T09:12:34.294Z,1.93
2022-08-27T09:13:34.311Z,1.78
2022-08-27T09:14:34.291Z,1.56
2022-08-27T09:15:34.294Z,1.48
2022-08-27T09:16:34.358Z,1.52
2022-08-27T09:17:34.290Z,1.66
2022-08-27T09:18:34.295Z,2.05
2022-08-27T09:19:34.310Z,2.71
2022-08-27T09:20:34.287Z,2.71
2022-08-27T09:21:34.303Z,3.41
2022-08-27T09:22:34.302Z,3.53
2022-08-27T09:23:34.303Z,3.53
2022-08-27T09:24:34.314Z,3.19
2022-08-27T09:25:34.289Z,3.15
2022-08-27T09:26:34.295Z,8.38
2022-08-27T09:27:34.289Z,8.47
2022-08-27T09:28:34.298Z,7.84
2022-08-27T09:29:34.297Z,2.84
2022-08-27T09:30:34.323Z,2.84
2022-08-27T09:31:34.288Z,2.73
2022-08-27T09:32:34.292Z,2.15
2022-08-27T09:33:44.416Z,2.06
2022-08-27T09:34:34.297Z,1.61
2022-08-27T09:35:34.294Z,1.44
2022-08-27T09:36:34.321Z,1.3
2022-08-27T09:37:34.959Z,1.21
2022-08-27T09:38:34.300Z,1.17
2022-08-27T09:39:34.319Z,1.13
2022-08-27T09:40:34.339Z,1.09
2022-08-27T09:41:34.289Z,1.04
2022-08-27T09:42:34.290Z,1
2022-08-27T09:43:34.317Z,1
2022-08-27T09:44:34.292Z,1.05
2022-08-27T09:45:34.323Z,1.14
2022-08-27T09:46:34.302Z,1.25
2022-08-27T09:47:34.291Z,1.36
2022-08-27T09:48:34.305Z,1.47
2022-08-27T09:49:34.309Z,1.55
2022-08-27T09:50:34.287Z,1.62
2022-08-27T09:51:34.298Z,1.68
2022-08-27T09:52:37.732Z,1.71
2022-08-27T09:53:34.427Z,1.71
2022-08-27T09:54:34.325Z,1.74
2022-08-27T09:55:34.294Z,1.75
2022-08-27T09:56:34.286Z,1.76
2022-08-27T09:57:34.301Z,1.78
2022-08-27T09:58:34.306Z,1.89
2022-08-27T09:59:34.287Z,3.01
2022-08-27T10:00:34.300Z,7.28
2022-08-27T10:01:34.351Z,3.3
2022-08-27T10:02:34.289Z,3.84
2022-08-27T10:03:34.418Z,2.58
2022-08-27T10:04:34.291Z,7.93
2022-08-27T10:05:34.292Z,2.59
2022-08-27T10:06:34.290Z,2.25
2022-08-27T10:07:34.292Z,2.25
2022-08-27T10:08:34.309Z,2.42
2022-08-27T10:09:34.319Z,3.48
2022-08-27T10:10:34.296Z,2.15
2022-08-27T10:11:34.292Z,1.96
2022-08-27T10:12:34.286Z,1.69
2022-08-27T10:13:34.312Z,1.52
2022-08-27T10:14:34.291Z,1.38
2022-08-27T10:15:38.744Z,1.17
2022-08-27T10:16:34.323Z,1
2022-08-27T10:17:34.293Z,0.9
2022-08-27T10:18:34.304Z,0.81
2022-08-27T10:19:34.300Z,0.73
2022-08-27T10:20:34.290Z,0.73
2022-08-27T10:21:34.293Z,0.64
2022-08-27T10:22:34.291Z,0.59
2022-08-27T10:23:34.306Z,0.55
2022-08-27T10:24:34.312Z,0.52
2022-08-27T10:25:34.293Z,0.5
2022-08-27T10:26:34.315Z,0.51
2022-08-27T10:27:34.287Z,0.5
2022-08-27T10:28:34.298Z,0.49
2022-08-27T10:29:34.286Z,0.5
2022-08-27T10:30:34.315Z,0.5
2022-08-27T10:31:34.338Z,0.73
2022-08-27T10:32:34.291Z,0.98
2022-08-27T10:33:34.305Z,1.29
2022-08-27T10:34:34.300Z,1.55
2022-08-27T10:35:34.291Z,1.95
2022-08-27T10:36:34.302Z,1.95
2022-08-27T10:37:36.667Z,2.59
2022-08-27T10:38:34.294Z,1.95
2022-08-27T10:39:34.319Z,1.73
2022-08-27T10:40:34.365Z,1.37
2022-08-27T10:41:34.287Z,1.11
2022-08-27T10:42:34.283Z,1.08
2022-08-27T10:43:34.299Z,1.02
2022-08-27T10:44:34.294Z,0.99
2022-08-27T10:45:34.289Z,0.99
2022-08-27T10:46:34.478Z,1.15
2022-08-27T10:47:34.296Z,1.23
2022-08-27T10:48:34.304Z,1.28
2022-08-27T10:49:34.290Z,1.38
2022-08-27T10:50:34.332Z,1.68
2022-08-27T10:51:34.284Z,1.98
2022-08-27T10:52:34.291Z,1.77
2022-08-27T10:53:34.316Z,1.44
2022-08-27T10:54:34.304Z,1.28
2022-08-27T10:55:34.290Z,1.23
2022-08-27T10:56:34.290Z,1.16
2022-08-27T10:57:53.932Z,1.19
2022-08-27T10:58:34.301Z,1.37
2022-08-27T10:59:34.295Z,1.82
2022-08-27T11:00:34.353Z,2.38
2022-08-27T11:01:34.287Z,2.3
2022-08-27T11:02:34.354Z,2.4
2022-08-27T11:03:34.319Z,3.23
2022-08-27T11:04:34.291Z,7.87
2022-08-27T11:05:34.295Z,8.1
2022-08-27T11:06:34.308Z,6.45
2022-08-27T11:07:34.292Z,6.45
2022-08-27T11:08:34.307Z,5.88
2022-08-27T11:09:34.331Z,7.74
2022-08-27T11:10:34.290Z,7.62
2022-08-27T11:12:10.542Z,7.9
2022-08-27T11:12:34.290Z,4.8
2022-08-27T11:13:34.343Z,2.92
2022-08-27T11:14:34.302Z,2.86
2022-08-27T11:15:34.288Z,7.08
2022-08-27T11:16:34.362Z,7.29
2022-08-27T11:17:34.292Z,7.04
2022-08-27T11:18:34.302Z,2.36
2022-08-27T11:19:34.309Z,2.23
2022-08-27T11:20:34.305Z,2.23
2022-08-27T11:21:34.297Z,2.33
2022-08-27T11:22:34.292Z,2.45
2022-08-27T11:23:34.307Z,2.7
2022-08-27T11:24:35.175Z,3.23
2022-08-27T11:25:34.289Z,4.82
2022-08-27T11:26:34.292Z,7.42
2022-08-27T11:27:34.308Z,3.3
2022-08-27T11:28:34.300Z,3.35
2022-08-27T11:29:34.299Z,4
2022-08-27T11:30:34.297Z,2.91
2022-08-27T11:31:34.345Z,2.38
2022-08-27T11:32:34.300Z,1.93
2022-08-27T11:33:34.305Z,1.55
2022-08-27T11:34:34.289Z,1.2
2022-08-27T11:35:34.661Z,1.2
2022-08-27T11:36:34.286Z,0.79
2022-08-27T11:37:34.380Z,0.78
2022-08-27T11:38:34.292Z,0.76
2022-08-27T11:39:34.313Z,0.68
2022-08-27T11:40:34.391Z,0.69
2022-08-27T11:41:45.062Z,0.64
2022-08-27T11:42:34.291Z,0.62
2022-08-27T11:43:34.309Z,0.62
2022-08-27T11:44:34.294Z,0.59
2022-08-27T11:45:34.292Z,0.57
2022-08-27T11:46:34.297Z,0.59
2022-08-27T11:47:39.798Z,0.66
2022-08-27T11:48:38.718Z,0.76
2022-08-27T11:49:38.698Z,0.86
2022-08-27T11:50:38.710Z,1
2022-08-27T11:51:38.706Z,1.12
2022-08-27T11:52:38.694Z,1.21
2022-08-27T11:53:51.886Z,1.28
2022-08-27T11:54:38.715Z,1.37
2022-08-27T11:55:38.691Z,1.46
2022-08-27T11:56:38.695Z,1.58
2022-08-27T11:57:38.700Z,1.75
2022-08-27T11:58:52.900Z,2.48
2022-08-27T11:59:38.702Z,2.21
2022-08-27T12:00:38.692Z,2.27
2022-08-27T12:01:38.694Z,2.09
2022-08-27T12:02:38.710Z,2.1
2022-08-27T12:03:38.808Z,2.24
2022-08-27T12:04:38.803Z,2.11
2022-08-27T12:05:38.693Z,2.08
2022-08-27T12:06:38.685Z,2.1
2022-08-27T12:07:38.702Z,2.1
2022-08-27T12:08:38.696Z,1.98
2022-08-27T12:09:38.699Z,1.92
2022-08-27T12:10:38.697Z,1.88
2022-08-27T12:11:38.689Z,1.87
2022-08-27T12:12:38.697Z,1.88
2022-08-27T12:13:38.731Z,1.9
2022-08-27T12:14:38.697Z,1.93
2022-08-27T12:15:38.697Z,1.98
2022-08-27T12:16:38.727Z,2.08
2022-08-27T12:17:38.685Z,2.18
2022-08-27T12:18:38.696Z,2.23
2022-08-27T12:19:38.688Z,2.33
2022-08-27T12:20:38.703Z,2.5
2022-08-27T12:21:38.693Z,2.61
2022-08-27T12:22:39.614Z,3.23
2022-08-27T12:23:38.711Z,3.12
2022-08-27T12:24:38.699Z,6.07
2022-08-27T12:25:38.691Z,3.59
2022-08-27T12:26:38.686Z,4.48
2022-08-27T12:27:38.688Z,3.63
2022-08-27T12:28:38.690Z,6.15
2022-08-27T12:29:40.233Z,2.77
2022-08-27T12:30:38.671Z,2.77
2022-08-27T12:31:38.724Z,4.78
2022-08-27T12:32:38.684Z,3.71
2022-08-27T12:33:38.706Z,2.98
2022-08-27T12:34:38.686Z,3.4
2022-08-27T12:35:38.687Z,2.36
2022-08-27T12:36:38.690Z,2.52
2022-08-27T12:37:38.698Z,1.27
2022-08-27T12:38:38.691Z,1.28
2022-08-27T12:39:38.712Z,1.25
2022-08-27T12:40:38.733Z,1.38
2022-08-27T12:41:44.408Z,1.51
2022-08-27T12:42:38.709Z,1.74
2022-08-27T12:43:38.700Z,1.58
2022-08-27T12:44:38.687Z,1.58
2022-08-27T12:45:38.687Z,1.09
2022-08-27T12:46:39.036Z,1.09
2022-08-27T12:47:38.667Z,1.03
2022-08-27T12:48:38.685Z,1.19
2022-08-27T12:49:39.641Z,1.26
2022-08-27T12:50:38.673Z,1.26
2022-08-27T12:51:39.010Z,1.18
2022-08-27T12:52:38.673Z,1.11
2022-08-27T12:53:38.771Z,1.01
2022-08-27T12:54:38.693Z,0.95
2022-08-27T12:55:38.676Z,0.93
2022-08-27T12:56:38.727Z,0.88
2022-08-27T12:57:38.667Z,0.85
2022-08-27T12:58:38.677Z,0.84
2022-08-27T12:59:38.680Z,0.81
2022-08-27T13:00:38.887Z,0.8
2022-08-27T13:01:43.092Z,0.78
2022-08-27T13:03:19.991Z,0.78
2022-08-27T13:04:18.838Z,0.77
2022-08-27T13:05:40.823Z,0.78
2022-08-27T13:07:10.362Z,0.8
2022-08-27T13:08:09.513Z,0.8
2022-08-27T13:09:09.341Z,0.87
2022-08-27T13:10:09.369Z,0.91
2022-08-27T13:11:09.371Z,0.95
2022-08-27T13:13:02.642Z,1.03
2022-08-27T13:14:01.513Z,1.06
2022-08-27T13:15:40.910Z,1.14
2022-08-27T13:16:40.147Z,1.2
2022-08-27T13:18:10.877Z,1.25
2022-08-27T13:20:14.014Z,1.34
2022-08-27T13:21:11.399Z,1.38
2022-08-27T13:22:54.188Z,1.47
2022-08-27T13:23:53.181Z,1.51
2022-08-27T13:24:53.144Z,1.56
2022-08-27T13:26:31.092Z,1.64
2022-08-27T13:27:30.003Z,1.68
2022-08-27T13:28:29.980Z,1.73
2022-08-27T13:29:29.979Z,1.8
2022-08-27T13:30:35.512Z,1.8
2022-08-27T13:31:30.087Z,1.97
2022-08-27T13:32:29.973Z,2.07
2022-08-27T13:33:29.973Z,2.21
2022-08-27T13:34:29.975Z,2.38
2022-08-27T13:35:29.968Z,2.51
2022-08-27T13:36:32.028Z,2.61
2022-08-27T13:37:29.966Z,3.03
2022-08-27T13:38:29.975Z,3.37
2022-08-27T13:39:29.976Z,3.2
2022-08-27T13:40:30.025Z,3.2
2022-08-27T13:41:29.978Z,4.08
2022-08-27T13:42:31.611Z,6.76
2022-08-27T13:43:30.609Z,8.4
2022-08-27T13:44:29.975Z,4.84
2022-08-27T13:45:29.973Z,4.84
2022-08-27T13:46:30.082Z,4.89
2022-08-27T13:47:29.968Z,4.96
2022-08-27T13:48:29.967Z,7.67
2022-08-27T13:49:29.972Z,8.14
2022-08-27T13:50:29.948Z,8.14
2022-08-27T13:51:29.967Z,5.75
2022-08-27T13:52:29.970Z,2.65
2022-08-27T13:53:29.976Z,1.78
2022-08-27T13:54:29.973Z,1.27
2022-08-27T13:55:29.986Z,0.99
2022-08-27T13:56:29.957Z,0.84
2022-08-27T13:57:29.981Z,0.72
2022-08-27T13:58:29.972Z,0.62
2022-08-27T13:59:29.968Z,0.58
2022-08-27T14:00:30.221Z,0.58
2022-08-27T14:01:30.134Z,0.55
2022-08-27T14:02:30.040Z,0.53
2022-08-27T14:03:29.966Z,0.52
2022-08-27T14:04:29.979Z,0.49
2022-08-27T14:05:29.968Z,0.44
2022-08-27T14:06:31.982Z,0.42
2022-08-27T14:07:29.956Z,0.42
2022-08-27T14:08:29.952Z,0.39
2022-08-27T14:09:29.972Z,0.37
2022-08-27T14:10:29.940Z,0.37
2022-08-27T14:11:29.962Z,0.32
2022-08-27T14:12:32.527Z,0.29
2022-08-27T14:13:29.965Z,0.29
2022-08-27T14:14:29.963Z,0.26
2022-08-27T14:15:29.977Z,0.25
2022-08-27T14:16:30.041Z,0.24
2022-08-27T14:17:29.946Z,0.24
2022-08-27T14:18:48.436Z,0.23
2022-08-27T14:19:36.502Z,0.24
2022-08-27T14:20:29.956Z,0.25
2022-08-27T14:21:29.942Z,0.27
2022-08-27T14:22:29.942Z,0.29
2022-08-27T14:23:29.942Z,0.32
2022-08-27T14:24:29.970Z,0.35
2022-08-27T14:25:30.012Z,0.41
2022-08-27T14:26:29.937Z,0.46
2022-08-27T14:27:29.967Z,0.51
2022-08-27T14:28:29.955Z,0.54
2022-08-27T14:29:29.961Z,0.56
2022-08-27T14:30:30.343Z,0.56
2022-08-27T14:31:29.984Z,0.62
2022-08-27T14:32:29.979Z,0.82
2022-08-27T14:33:29.993Z,1.22
2022-08-27T14:34:29.976Z,0.67
2022-08-27T14:35:29.942Z,0.67
2022-08-27T14:36:29.959Z,0.59
2022-08-27T14:37:29.979Z,0.57
2022-08-27T14:38:29.959Z,0.54
2022-08-27T14:39:29.974Z,0.51
2022-08-27T14:40:30.016Z,0.51
2022-08-27T14:41:29.958Z,0.45
2022-08-27T14:42:29.969Z,0.41
2022-08-27T14:43:29.949Z,0.38
2022-08-27T14:44:29.972Z,0.37
2022-08-27T14:45:29.950Z,0.37
2022-08-27T14:46:30.054Z,0.35
2022-08-27T14:47:33.554Z,0.31
2022-08-27T14:48:29.960Z,0.28
2022-08-27T14:49:29.973Z,0.25
2022-08-27T14:50:30.029Z,0.25
2022-08-27T14:51:29.957Z,0.21
2022-08-27T14:52:29.959Z,0.2
2022-08-27T14:53:29.955Z,0.19
2022-08-27T14:54:33.559Z,0.18
2022-08-27T14:55:29.957Z,0.18
2022-08-27T14:56:29.957Z,0.18
2022-08-27T14:57:29.969Z,0.18
2022-08-27T14:58:29.961Z,0.2
2022-08-27T14:59:29.970Z,0.23
2022-08-27T15:00:29.966Z,0.23
2022-08-27T15:01:30.001Z,0.26
2022-08-27T15:02:29.963Z,0.28
2022-08-27T15:03:29.957Z,0.31
2022-08-27T15:04:30.021Z,0.33
2022-08-27T15:05:30.088Z,0.34
2022-08-27T15:06:29.950Z,0.34
2022-08-27T15:07:29.956Z,0.34
2022-08-27T15:08:32.313Z,0.31
2022-08-27T15:09:29.963Z,0.3
2022-08-27T15:10:29.963Z,0.3
2022-08-27T15:11:29.953Z,0.3
2022-08-27T15:12:29.970Z,0.3
2022-08-27T15:13:29.961Z,0.32
2022-08-27T15:14:30.016Z,0.33
2022-08-27T15:15:29.957Z,0.34
2022-08-27T15:16:30.013Z,0.36
2022-08-27T15:17:35.154Z,0.39
2022-08-27T15:18:29.963Z,0.39
2022-08-27T15:19:29.985Z,0.46
2022-08-27T15:20:29.940Z,0.46
2022-08-27T15:21:29.945Z,0.52
2022-08-27T15:22:29.945Z,0.57
2022-08-27T15:23:29.936Z,0.62
2022-08-27T15:24:29.955Z,0.66
2022-08-27T15:25:29.938Z,0.71
2022-08-27T15:26:29.948Z,0.74
2022-08-27T15:27:32.011Z,0.75
2022-08-27T15:28:29.936Z,0.79
2022-08-27T15:29:29.953Z,0.89
2022-08-27T15:30:29.936Z,0.96
2022-08-27T15:31:30.063Z,1.03
2022-08-27T15:32:29.960Z,1.18
2022-08-27T15:33:29.982Z,1.24
2022-08-27T15:34:29.971Z,1.19
2022-08-27T15:35:29.967Z,1.27
2022-08-27T15:36:29.955Z,1.23
2022-08-27T15:37:29.959Z,1.02
2022-08-27T15:38:29.956Z,0.99
2022-08-27T15:39:29.975Z,0.99
2022-08-27T15:40:30.031Z,0.99
2022-08-27T15:41:29.963Z,1.09
2022-08-27T15:42:29.962Z,1.58
2022-08-27T15:43:29.949Z,1.31
2022-08-27T15:44:29.959Z,1.22
2022-08-27T15:45:29.963Z,1.48
2022-08-27T15:46:30.008Z,1.66
2022-08-27T15:47:29.951Z,1.45
2022-08-27T15:48:29.957Z,1.57
2022-08-27T15:49:29.962Z,1.6
2022-08-27T15:50:29.950Z,1.6
2022-08-27T15:51:29.966Z,1.51
2022-08-27T15:52:36.358Z,1.23
2022-08-27T15:53:29.964Z,1.21
2022-08-27T15:54:29.976Z,1.16
2022-08-27T15:55:29.941Z,1.16
2022-08-27T15:56:34.323Z,1.22
2022-08-27T15:57:29.967Z,1.16
2022-08-27T15:58:29.971Z,1.14
2022-08-27T15:59:29.975Z,1.12
2022-08-27T16:00:29.973Z,1.12
2022-08-27T16:01:30.010Z,1.07
2022-08-27T16:02:30.034Z,1.03
2022-08-27T16:03:35.806Z,0.98
2022-08-27T16:04:29.976Z,0.96
2022-08-27T16:05:29.958Z,0.93
2022-08-27T16:06:29.955Z,0.89